Archival Weather

Half Moon Bay

Half Moon Bay, California (KHAF)

Report from: Tuesday, February 27, 2024 12:35 AM PST
Current time: Monday, April 22, 2024 11:51 PM PDT

Current weather – Weather history – Daily summaries
Weather forecast

Present weatherHaze
Temperature11.0°C (51.8°F)
Dew point7.0°C (44.6°F)
Winds 11 kts (5.7 m/s, 12.7 mph) North-Northwest (340°)
Visibility6 mi. (9.7 km)
Clouds Scattered clouds 2,500 ft. (762 m)
Altimeter30.02 in.Hg (1017 mB)
Relative humidity76 %
Density altitude-446 ft. (-136 m)
Remarks Fully automated report
Automated weather observing station with precipitation discriminator
Flight conditions Visual Meteorological Conditions
Raw dataKHAF 270835Z AUTO 34011KT 6SM HZ SCT025 11/07 A3002 RMK AO2
An error has occurred. This application may no longer respond until reloaded. Reload 🗙